createdAt,value
2022-10-09T00:00:41.659Z,100.00
2022-10-09T00:03:29.229Z,100.00
2022-10-09T00:06:16.772Z,100.00
2022-10-09T00:09:04.341Z,100.00
2022-10-09T00:11:51.908Z,100.00
2022-10-09T00:14:39.462Z,100.00
2022-10-09T00:17:27.011Z,100.00
2022-10-09T00:20:14.813Z,100.00
2022-10-09T00:23:02.449Z,100.00
2022-10-09T00:25:50.069Z,100.00
2022-10-09T00:28:38.834Z,100.00
2022-10-09T00:31:26.622Z,100.00
2022-10-09T00:34:14.165Z,100.00
2022-10-09T00:37:01.746Z,100.00
2022-10-09T00:39:49.307Z,100.00
2022-10-09T00:42:36.877Z,100.00
2022-10-09T00:45:24.442Z,100.00
2022-10-09T00:48:14.008Z,99.99
2022-10-09T00:51:01.558Z,100.00
2022-10-09T00:53:49.114Z,100.00
2022-10-09T00:56:36.664Z,100.00
2022-10-09T00:59:24.220Z,100.00
2022-10-09T01:02:11.794Z,100.00
2022-10-09T01:04:59.411Z,100.00
2022-10-09T01:07:46.958Z,100.00
2022-10-09T01:10:34.528Z,100.00
2022-10-09T01:13:22.105Z,100.00
2022-10-09T01:16:09.799Z,100.00
2022-10-09T01:18:57.438Z,100.00
2022-10-09T01:21:45.097Z,100.00
2022-10-09T01:24:32.659Z,100.00
2022-10-09T01:27:20.222Z,100.00
2022-10-09T01:30:07.818Z,100.00
2022-10-09T01:32:55.389Z,100.00
2022-10-09T01:35:42.956Z,100.00
2022-10-09T01:38:30.521Z,100.00
2022-10-09T01:41:18.108Z,100.00
2022-10-09T01:44:05.661Z,100.00
2022-10-09T01:46:53.226Z,100.00
2022-10-09T01:49:40.811Z,100.00
2022-10-09T01:52:28.369Z,100.00
2022-10-09T01:55:15.929Z,100.00
2022-10-09T01:58:03.485Z,100.00
2022-10-09T02:00:52.100Z,100.00
2022-10-09T02:03:39.644Z,100.00
2022-10-09T02:06:27.210Z,100.00
2022-10-09T02:09:14.758Z,100.00
2022-10-09T02:12:02.331Z,100.00
2022-10-09T02:14:49.891Z,100.00
2022-10-09T02:17:37.460Z,100.00
2022-10-09T02:20:25.021Z,100.00
2022-10-09T02:23:12.584Z,100.00
2022-10-09T02:26:00.146Z,100.00
2022-10-09T02:28:47.813Z,100.00
2022-10-09T02:31:35.552Z,100.00
2022-10-09T02:34:23.111Z,100.00
2022-10-09T02:37:10.657Z,100.00
2022-10-09T02:39:58.233Z,100.00
2022-10-09T02:42:45.899Z,100.00
2022-10-09T02:45:33.610Z,100.00
2022-10-09T02:48:21.166Z,100.00
2022-10-09T02:51:08.735Z,100.00
2022-10-09T02:53:56.289Z,100.00
2022-10-09T02:56:43.850Z,100.00
2022-10-09T02:59:31.384Z,100.00
2022-10-09T03:02:19.166Z,100.00
2022-10-09T03:05:08.777Z,100.00
2022-10-09T03:07:56.345Z,100.00
2022-10-09T03:10:43.880Z,100.00
2022-10-09T03:13:31.446Z,100.00
2022-10-09T03:16:19.041Z,100.00
2022-10-09T03:19:06.658Z,100.00
2022-10-09T03:21:54.184Z,100.00
2022-10-09T03:24:41.749Z,100.00
2022-10-09T03:27:29.286Z,100.00
2022-10-09T03:30:16.847Z,99.97
2022-10-09T03:33:04.398Z,99.83
2022-10-09T03:35:52.061Z,99.30
2022-10-09T03:38:41.580Z,99.20
2022-10-09T03:41:29.144Z,99.11
2022-10-09T03:44:16.690Z,97.75
2022-10-09T03:47:04.319Z,96.59
2022-10-09T03:49:51.931Z,95.83
2022-10-09T03:52:39.500Z,95.34
2022-10-09T03:55:27.038Z,95.05
2022-10-09T03:58:14.602Z,94.58
2022-10-09T04:01:02.205Z,94.23
2022-10-09T04:03:49.821Z,94.87
2022-10-09T04:06:37.361Z,94.21
2022-10-09T04:09:24.924Z,95.12
2022-10-09T04:12:12.463Z,94.81
2022-10-09T04:15:00.035Z,94.90
2022-10-09T04:17:47.577Z,94.56
2022-10-09T04:20:35.147Z,94.78
2022-10-09T04:23:22.684Z,94.86
2022-10-09T04:26:10.257Z,94.61
2022-10-09T04:28:57.802Z,95.15
2022-10-09T04:31:45.411Z,95.57
2022-10-09T04:34:32.995Z,95.12
2022-10-09T04:37:20.543Z,95.28
2022-10-09T04:40:08.172Z,95.62
2022-10-09T04:42:55.714Z,95.66
2022-10-09T04:45:43.330Z,96.36
2022-10-09T04:48:30.921Z,97.12
2022-10-09T04:51:18.486Z,96.17
2022-10-09T04:54:06.033Z,96.18
2022-10-09T04:56:53.602Z,96.25
2022-10-09T04:59:41.166Z,97.75
2022-10-09T05:02:28.750Z,98.03
2022-10-09T05:05:16.356Z,98.16
2022-10-09T05:08:03.893Z,96.65
2022-10-09T05:10:51.456Z,96.09
2022-10-09T05:13:38.995Z,96.36
2022-10-09T05:16:26.593Z,97.94
2022-10-09T05:19:14.740Z,96.77
2022-10-09T05:22:02.288Z,98.79
2022-10-09T05:24:49.830Z,97.74
2022-10-09T05:27:37.381Z,98.57
2022-10-09T05:30:24.933Z,97.54
2022-10-09T05:33:12.507Z,98.05
2022-10-09T05:36:00.036Z,95.96
2022-10-09T05:38:47.605Z,96.60
2022-10-09T05:41:35.282Z,95.89
2022-10-09T05:44:22.826Z,96.50
2022-10-09T05:47:10.373Z,95.07
2022-10-09T05:49:57.904Z,92.27
2022-10-09T05:52:45.467Z,92.92
2022-10-09T05:55:33.045Z,92.65
2022-10-09T05:58:20.703Z,93.07
2022-10-09T06:01:08.293Z,90.41
2022-10-09T06:03:55.882Z,87.84
2022-10-09T06:06:43.438Z,91.39
2022-10-09T06:09:31.001Z,93.54
2022-10-09T06:12:18.557Z,92.31
2022-10-09T06:15:06.100Z,94.51
2022-10-09T06:17:53.649Z,93.69
2022-10-09T06:20:41.212Z,92.49
2022-10-09T06:23:28.744Z,92.53
2022-10-09T06:26:16.318Z,90.07
2022-10-09T06:29:03.867Z,92.25
2022-10-09T06:31:51.429Z,93.59
2022-10-09T06:34:38.990Z,94.44
2022-10-09T06:37:26.537Z,95.20
2022-10-09T06:40:16.095Z,96.00
2022-10-09T06:43:03.636Z,97.49
2022-10-09T06:45:51.337Z,98.71
2022-10-09T06:48:38.919Z,99.71
2022-10-09T06:51:26.479Z,99.46
2022-10-09T06:54:14.024Z,99.70
2022-10-09T06:57:01.589Z,100.00
2022-10-09T06:59:49.144Z,99.91
2022-10-09T07:02:41.778Z,99.02
2022-10-09T07:05:31.384Z,99.36
2022-10-09T07:08:18.947Z,99.46
2022-10-09T07:11:06.494Z,98.84
2022-10-09T07:13:54.049Z,98.83
2022-10-09T07:16:41.583Z,97.91
2022-10-09T07:19:29.160Z,97.80
2022-10-09T07:22:16.718Z,98.35
2022-10-09T07:25:04.269Z,98.83
2022-10-09T07:27:51.823Z,99.08
2022-10-09T07:30:39.435Z,98.60
2022-10-09T07:33:27.006Z,98.49
2022-10-09T07:36:14.676Z,97.90
2022-10-09T07:39:02.204Z,97.33
2022-10-09T07:41:49.773Z,97.56
2022-10-09T07:44:37.308Z,97.67
2022-10-09T07:47:24.965Z,98.89
2022-10-09T07:50:12.528Z,98.03
2022-10-09T07:53:00.085Z,97.55
2022-10-09T07:55:47.618Z,98.03
2022-10-09T07:58:35.200Z,97.67
2022-10-09T08:01:22.807Z,98.70
2022-10-09T08:04:10.446Z,98.33
2022-10-09T08:06:57.975Z,98.00
2022-10-09T08:09:45.611Z,98.31
2022-10-09T08:12:33.146Z,97.03
2022-10-09T08:15:20.714Z,96.87
2022-10-09T08:18:08.272Z,97.41
2022-10-09T08:20:55.821Z,96.66
2022-10-09T08:23:45.381Z,96.96
2022-10-09T08:26:32.925Z,95.89
2022-10-09T08:29:20.499Z,96.06
2022-10-09T08:32:08.031Z,95.79
2022-10-09T08:34:55.680Z,96.31
2022-10-09T08:37:43.216Z,95.11
2022-10-09T08:40:30.769Z,94.17
2022-10-09T08:43:18.324Z,94.96
2022-10-09T08:46:05.913Z,94.69
2022-10-09T08:48:53.529Z,95.21
2022-10-09T08:51:41.081Z,96.21
2022-10-09T08:54:28.733Z,97.05
2022-10-09T08:57:16.290Z,98.19
2022-10-09T09:00:03.862Z,97.76
2022-10-09T09:02:51.972Z,97.53
2022-10-09T09:05:40.031Z,96.82
2022-10-09T09:08:27.564Z,96.86
2022-10-09T09:11:18.185Z,94.48
2022-10-09T09:14:08.937Z,93.29
2022-10-09T09:16:56.494Z,94.18
2022-10-09T09:19:44.065Z,92.14
2022-10-09T09:22:31.608Z,93.06
2022-10-09T09:25:19.179Z,88.70
2022-10-09T09:28:10.147Z,90.49
2022-10-09T09:31:00.016Z,91.79
2022-10-09T09:33:47.579Z,90.13
2022-10-09T09:36:35.137Z,90.69
2022-10-09T09:40:23.751Z,87.52
2022-10-09T09:42:30.309Z,85.37
2022-10-09T09:45:17.848Z,84.28
2022-10-09T09:48:05.414Z,84.22
2022-10-09T09:51:10.126Z,81.47
2022-10-09T09:54:00.471Z,81.53
2022-10-09T09:59:55.526Z,79.75
2022-10-09T10:02:43.081Z,76.56
2022-10-09T10:05:30.638Z,78.97
2022-10-09T10:08:18.224Z,78.11
2022-10-09T10:11:05.775Z,78.25
2022-10-09T10:13:53.301Z,79.78
2022-10-09T10:16:40.938Z,78.92
2022-10-09T10:19:28.535Z,78.28
2022-10-09T10:22:16.098Z,77.37
2022-10-09T10:25:03.638Z,76.19
2022-10-09T10:27:51.835Z,75.90
2022-10-09T10:30:39.435Z,77.17
2022-10-09T10:33:27.005Z,77.79
2022-10-09T10:36:14.546Z,79.32
2022-10-09T10:39:02.110Z,78.09
2022-10-09T10:41:49.659Z,77.66
2022-10-09T10:44:37.248Z,78.49
2022-10-09T10:47:24.809Z,81.59
2022-10-09T10:50:12.479Z,85.08
2022-10-09T10:53:00.025Z,83.06
2022-10-09T10:55:47.582Z,83.18
2022-10-09T10:58:35.140Z,86.81
2022-10-09T11:01:22.786Z,86.02
2022-10-09T11:04:10.393Z,83.94
2022-10-09T11:06:57.974Z,82.39
2022-10-09T11:09:45.533Z,82.78
2022-10-09T11:12:47.340Z,81.98
2022-10-09T11:15:40.653Z,85.39
2022-10-09T11:18:28.220Z,81.86
2022-10-09T11:21:15.784Z,81.31
2022-10-09T11:24:03.346Z,82.59
2022-10-09T11:26:50.907Z,83.77
2022-10-09T11:29:38.556Z,79.82
2022-10-09T11:32:28.137Z,77.51
2022-10-09T11:35:15.844Z,78.21
2022-10-09T11:38:03.378Z,77.54
2022-10-09T11:40:51.025Z,77.52
2022-10-09T11:43:38.579Z,74.05
2022-10-09T11:46:26.149Z,73.61
2022-10-09T11:49:13.713Z,74.74
2022-10-09T11:52:01.269Z,77.95
2022-10-09T11:54:48.804Z,80.45
2022-10-09T11:57:36.470Z,77.47
2022-10-09T12:00:26.012Z,75.84
2022-10-09T12:03:13.589Z,82.09
2022-10-09T12:06:01.158Z,77.92
2022-10-09T12:08:48.736Z,73.46
2022-10-09T12:11:36.282Z,73.22
2022-10-09T12:14:23.842Z,71.28
2022-10-09T12:17:11.417Z,68.32
2022-10-09T12:20:01.241Z,75.32
2022-10-09T12:23:07.201Z,79.57
2022-10-09T12:25:56.452Z,81.85
2022-10-09T12:28:44.048Z,73.76
2022-10-09T12:31:31.702Z,70.77
2022-10-09T12:34:19.313Z,73.36
2022-10-09T12:37:06.852Z,68.66
2022-10-09T12:39:54.424Z,63.62
2022-10-09T12:42:41.959Z,62.58
2022-10-09T12:45:29.508Z,59.99
2022-10-09T12:48:17.065Z,60.71
2022-10-09T12:51:04.638Z,58.90
2022-10-09T12:53:52.176Z,58.03
2022-10-09T12:56:39.734Z,60.16
2022-10-09T12:59:27.317Z,57.62
2022-10-09T13:02:14.924Z,56.45
2022-10-09T13:05:02.668Z,55.16
2022-10-09T13:07:50.203Z,55.25
2022-10-09T13:10:37.766Z,54.31
2022-10-09T13:13:25.321Z,53.90
2022-10-09T13:16:12.908Z,56.53
2022-10-09T13:19:00.477Z,59.30
2022-10-09T13:21:48.035Z,61.67
2022-10-09T13:24:35.576Z,61.32
2022-10-09T13:27:23.135Z,62.45
2022-10-09T13:30:10.760Z,63.22
2022-10-09T13:32:58.381Z,62.64
2022-10-09T13:35:45.924Z,64.00
2022-10-09T13:38:35.089Z,61.33
2022-10-09T13:41:23.070Z,63.99
2022-10-09T13:44:10.648Z,64.59
2022-10-09T13:46:58.185Z,67.38
2022-10-09T13:49:45.756Z,67.34
2022-10-09T13:52:33.343Z,66.50
2022-10-09T13:55:20.946Z,65.96
2022-10-09T13:58:08.487Z,68.02
2022-10-09T14:00:56.053Z,67.34
2022-10-09T14:03:43.594Z,71.77
2022-10-09T14:06:31.252Z,76.00
2022-10-09T14:09:18.789Z,71.63
2022-10-09T14:12:06.357Z,69.86
2022-10-09T14:14:53.911Z,68.05
2022-10-09T14:17:41.530Z,70.03
2022-10-09T14:20:29.063Z,68.07
2022-10-09T14:23:16.625Z,70.46
2022-10-09T14:26:04.170Z,70.15
2022-10-09T14:28:51.787Z,69.41
2022-10-09T14:31:39.461Z,69.35
2022-10-09T14:34:27.122Z,67.98
2022-10-09T14:37:29.768Z,67.52
2022-10-09T14:40:24.216Z,68.39
2022-10-09T14:43:11.770Z,66.28
2022-10-09T14:45:59.333Z,63.75
2022-10-09T14:48:46.873Z,62.65
2022-10-09T14:51:36.794Z,62.49
2022-10-09T14:54:24.691Z,63.60
2022-10-09T14:57:12.251Z,62.63
2022-10-09T14:59:59.799Z,62.44
2022-10-09T15:02:47.385Z,62.32
2022-10-09T15:05:34.933Z,60.97
2022-10-09T15:08:22.510Z,60.01
2022-10-09T15:11:10.035Z,58.86
2022-10-09T15:13:57.600Z,58.20
2022-10-09T15:16:45.143Z,57.37
2022-10-09T15:19:32.695Z,58.67
2022-10-09T15:22:20.249Z,58.63
2022-10-09T15:25:07.802Z,58.21
2022-10-09T15:27:55.596Z,57.81
2022-10-09T15:30:43.477Z,57.56
2022-10-09T15:33:31.019Z,57.18
2022-10-09T15:36:18.681Z,56.10
2022-10-09T15:39:06.203Z,55.51
2022-10-09T15:41:53.773Z,55.41
2022-10-09T15:44:41.330Z,56.42
2022-10-09T15:47:50.038Z,54.89
2022-10-09T15:50:36.376Z,53.65
2022-10-09T15:53:23.970Z,53.28
2022-10-09T15:56:11.498Z,53.23
2022-10-09T15:58:59.159Z,53.00
2022-10-09T16:01:48.702Z,53.00
2022-10-09T16:04:36.404Z,53.22
2022-10-09T16:07:23.938Z,52.73
2022-10-09T16:10:11.613Z,52.56
2022-10-09T16:12:59.160Z,52.32
2022-10-09T16:15:46.716Z,54.36
2022-10-09T16:18:34.243Z,61.42
2022-10-09T16:21:21.808Z,63.28
2022-10-09T16:24:09.337Z,68.23
2022-10-09T16:26:56.921Z,72.11
2022-10-09T16:29:44.470Z,73.27
2022-10-09T16:32:32.039Z,76.11
2022-10-09T16:35:19.592Z,75.77
2022-10-09T16:38:07.163Z,79.19
2022-10-09T16:41:02.014Z,78.33
2022-10-09T16:43:50.317Z,75.02
2022-10-09T16:46:39.851Z,71.46
2022-10-09T16:49:27.411Z,70.18
2022-10-09T16:52:14.951Z,67.88
2022-10-09T16:55:02.519Z,67.25
2022-10-09T16:57:50.290Z,65.33
2022-10-09T17:00:38.078Z,64.06
2022-10-09T17:03:25.661Z,63.93
2022-10-09T17:06:13.310Z,63.36
2022-10-09T17:09:02.839Z,62.59
2022-10-09T17:11:50.505Z,61.40
2022-10-09T17:14:40.043Z,60.65
2022-10-09T17:17:27.641Z,60.26
2022-10-09T17:20:15.199Z,63.58
2022-10-09T17:23:02.752Z,66.00
2022-10-09T17:25:50.290Z,66.64
2022-10-09T17:28:37.909Z,67.70
2022-10-09T17:31:25.478Z,66.95
2022-10-09T17:34:13.044Z,68.50
2022-10-09T17:37:00.594Z,68.21
2022-10-09T17:39:51.991Z,65.99
2022-10-09T17:42:39.948Z,65.30
2022-10-09T17:45:27.503Z,64.52
2022-10-09T17:48:15.045Z,63.72
2022-10-09T17:51:02.606Z,63.01
2022-10-09T17:53:51.315Z,62.09
2022-10-09T17:56:38.938Z,61.16
2022-10-09T17:59:26.480Z,60.55
2022-10-09T18:02:14.068Z,60.10
2022-10-09T18:05:01.599Z,58.52
2022-10-09T18:07:49.307Z,58.24
2022-10-09T18:10:37.080Z,58.47
2022-10-09T18:13:24.642Z,58.12
2022-10-09T18:16:12.200Z,57.67
2022-10-09T18:18:59.752Z,56.80
2022-10-09T18:21:47.311Z,56.83
2022-10-09T18:24:34.873Z,56.40
2022-10-09T18:27:22.420Z,56.32
2022-10-09T18:30:09.968Z,56.63
2022-10-09T18:32:57.537Z,58.17
2022-10-09T18:35:45.096Z,61.75
2022-10-09T18:38:32.628Z,63.33
2022-10-09T18:41:20.187Z,65.42
2022-10-09T18:44:07.725Z,68.49
2022-10-09T18:46:55.271Z,70.72
2022-10-09T18:49:42.837Z,69.61
2022-10-09T18:52:30.497Z,67.61
2022-10-09T18:55:20.022Z,65.64
2022-10-09T18:58:07.584Z,65.50
2022-10-09T19:00:55.206Z,64.75
2022-10-09T19:03:45.979Z,62.71
2022-10-09T19:06:36.736Z,61.85
2022-10-09T19:09:24.308Z,61.46
2022-10-09T19:12:11.899Z,62.36
2022-10-09T19:14:59.455Z,64.47
2022-10-09T19:17:47.142Z,63.40
2022-10-09T19:20:34.818Z,66.53
2022-10-09T19:23:22.390Z,67.67
2022-10-09T19:26:09.942Z,68.72
2022-10-09T19:28:57.501Z,68.72
2022-10-09T19:31:45.048Z,67.94
2022-10-09T19:34:32.622Z,66.11
2022-10-09T19:37:20.154Z,66.97
2022-10-09T19:40:07.734Z,66.63
2022-10-09T19:42:55.302Z,64.73
2022-10-09T19:45:42.870Z,63.83
2022-10-09T19:48:30.426Z,63.14
2022-10-09T19:51:17.999Z,63.56
2022-10-09T19:54:05.555Z,63.93
2022-10-09T19:56:53.104Z,64.97
2022-10-09T19:59:40.664Z,65.38
2022-10-09T20:02:28.201Z,64.46
2022-10-09T20:05:15.762Z,63.28
2022-10-09T20:08:03.304Z,62.62
2022-10-09T20:10:50.886Z,61.68
2022-10-09T20:13:38.442Z,60.74
2022-10-09T20:16:26.001Z,59.45
2022-10-09T20:19:13.572Z,59.94
2022-10-09T20:22:01.202Z,59.84
2022-10-09T20:24:48.744Z,59.46
2022-10-09T20:27:36.333Z,58.84
2022-10-09T20:30:23.917Z,58.76
2022-10-09T20:33:11.479Z,59.11
2022-10-09T20:35:59.023Z,59.25
2022-10-09T20:38:46.582Z,58.35
2022-10-09T20:41:34.214Z,57.29
2022-10-09T20:44:21.798Z,57.00
2022-10-09T20:47:09.360Z,56.87
2022-10-09T20:49:57.076Z,57.27
2022-10-09T20:52:44.606Z,56.14
2022-10-09T20:55:32.214Z,56.18
2022-10-09T20:58:19.785Z,56.16
2022-10-09T21:01:07.375Z,56.21
2022-10-09T21:03:54.957Z,55.85
2022-10-09T21:06:42.525Z,55.91
2022-10-09T21:09:33.233Z,55.69
2022-10-09T21:12:21.129Z,55.72
2022-10-09T21:15:08.702Z,56.07
2022-10-09T21:17:56.327Z,55.70
2022-10-09T21:20:43.915Z,55.57
2022-10-09T21:23:31.505Z,55.56
2022-10-09T21:26:19.100Z,55.54
2022-10-09T21:29:06.660Z,55.54
2022-10-09T21:31:54.232Z,55.61
2022-10-09T21:34:42.981Z,54.91
2022-10-09T21:37:33.519Z,55.45
2022-10-09T21:40:23.143Z,54.55
2022-10-09T21:43:10.932Z,54.13
2022-10-09T21:45:58.500Z,54.59
2022-10-09T21:48:46.115Z,54.69
2022-10-09T21:51:33.699Z,54.78
2022-10-09T21:54:21.255Z,54.71
2022-10-09T21:57:08.828Z,54.36
2022-10-09T21:59:56.437Z,54.43
2022-10-09T22:02:43.998Z,54.11
2022-10-09T22:05:31.568Z,54.60
2022-10-09T22:08:19.162Z,54.09
2022-10-09T22:11:06.723Z,53.52
2022-10-09T22:13:54.284Z,54.15
2022-10-09T22:16:41.847Z,55.29
2022-10-09T22:19:29.416Z,55.58
2022-10-09T22:22:16.957Z,55.91
2022-10-09T22:25:04.541Z,55.65
2022-10-09T22:27:52.109Z,56.01
2022-10-09T22:30:39.663Z,55.93
2022-10-09T22:33:27.208Z,55.42
2022-10-09T22:36:14.876Z,54.90
2022-10-09T22:39:04.416Z,54.74
2022-10-09T22:41:51.970Z,55.09
2022-10-09T22:44:39.537Z,55.89
2022-10-09T22:47:27.122Z,55.19
2022-10-09T22:50:14.664Z,55.16
2022-10-09T22:53:02.213Z,54.98
2022-10-09T22:55:49.777Z,55.83
2022-10-09T22:58:37.343Z,54.97
2022-10-09T23:01:24.946Z,55.56
2022-10-09T23:04:12.557Z,55.72
2022-10-09T23:07:00.122Z,56.37
2022-10-09T23:09:47.688Z,56.43
2022-10-09T23:12:35.237Z,56.51
2022-10-09T23:15:22.806Z,57.07
2022-10-09T23:18:10.366Z,56.51
2022-10-09T23:20:57.958Z,56.63
2022-10-09T23:23:45.496Z,56.24
2022-10-09T23:26:33.053Z,55.87
2022-10-09T23:29:20.640Z,55.93
2022-10-09T23:32:08.189Z,55.74
2022-10-09T23:34:55.763Z,57.20
2022-10-09T23:37:43.323Z,57.94
2022-10-09T23:40:30.913Z,57.94
2022-10-09T23:43:18.465Z,58.00
2022-10-09T23:46:06.036Z,59.50
2022-10-09T23:48:53.605Z,59.90
2022-10-09T23:51:41.141Z,59.90
2022-10-09T23:54:28.708Z,60.27
2022-10-09T23:57:16.261Z,60.22
